Tiempo atmosférico en la estación meteorológica de Cabo Vilan, A Coruña (50 m.)



Fecha
DESCASC
Temp. máxima en grados centígrados (hora)
DESCASC
Temp. mínima en grados centígrados (hora)
DESCASC
Temp. media en grados centígrados
DESCASC
Racha de viento máxima en m/sg (hora)
DESCASC
Velocidad máxima media en intervalos de 10 minutos(hora)
DESCASC
Precipitaciones diarias en mm
DESCASC
Precipitaciones de 00:00 a 06:00 en mm
DESCASC
Precipitaciones de 06:00 a 12:00 en mm
DESCASC
Precipitaciones de 12:00 a 18:00 en mm
DESCASC
Precipitaciones de 18:00 a 24:00 en mm
DESCASC
31-03-2020 10.6 (15:40) 6.6 (09:00) 8.6 21.67 (00:40) 16.67 (10:20) 6.2 0 0 1.5 4.7
30-03-2020 10.6 (00:10) 7.1 (23:50) 8.9 28.06 (12:30) 20 (18:00) 0 0 0 0 0
29-03-2020 14 (16:20) 9.7 (00:00) 11.8 23.89 (21:40) 15.56 (18:20) 0 0 0 0 0
28-03-2020 17 (13:50) 8 (00:00) 12.5 9.44 (07:00) 6.67 (07:00) 0 0 0 0 0
27-03-2020 13.6 (16:40) 8.7 (00:00) 11.2 17.22 (15:20) 13.89 (15:20) 0 0 0 0 0
26-03-2020 12.9 (12:50) 10.1 (00:00) 11.5 17.22 (21:10) 13.89 (21:00) 0 0 0 0 0
25-03-2020 14.1 (17:50) 10.5 (00:00) 12.3 7.22 (23:59) 5.28 (23:59) 0.1 0.1 0 0 0
24-03-2020 16.8 (15:40) 9.7 (00:00) 13.2 12.78 (00:30) 9.72 (03:20) 0 0 0 0 0
23-03-2020 12.3 (00:30) 10.9 (00:00) 11.6 16.67 (00:40) 13.89 (11:10) 0 0 0 0 0
22-03-2020 14.2 (13:30) 11.3 (04:50) 12.8 16.11 (19:40) 13.33 (20:40) 0 0 0 0 0
21-03-2020 14.5 (13:40) 11.5 (00:00) 13 10.56 (09:30) 8.89 (09:10) 0.3 0.2 0.1 0 0
20-03-2020 14.5 (13:50) 11.5 (00:00) 13 5.28 (23:30) 3.61 (15:20) 2.8 0.3 0.5 0.2 1.8
19-03-2020 14.8 (13:30) 11.6 (00:00) 13.2 11.39 (03:20) 10 (05:10) 0.1 0 0 0 0.1
18-03-2020 15 (13:40) 10.2 (00:00) 12.6 13.61 (19:40) 10.28 (16:30) 0 0 0 0 0
17-03-2020 13.9 (18:10) 10.7 (00:00) 12.3 20.83 (03:50) 16.39 (04:20) 0 0 0 0 0
16-03-2020 12.3 (14:40) 7.9 (00:00) 10.1 19.44 (03:50) 15.28 (23:50) 0.9 0.8 0.1 0 0
15-03-2020 12.6 (09:10) 8 (00:00) 10.3 16.11 (21:40) 11.67 (22:30) 8.5 0 7.5 0.2 0.8
14-03-2020 15.9 (13:30) 9.2 (00:00) 12.5 6.67 (16:10) 5.28 (16:10) 0 0 0 0 0
13-03-2020 12.9 (13:30) 10.2 (23:50) 11.5 18.89 (00:40) 15.28 (02:10) 0.1 0 0 0.1 0
12-03-2020 13.9 (10:30) 10.7 (00:00) 12.3 17.5 (23:50) 14.72 (23:50) 0.1 0.1 0 0 0
11-03-2020 16.7 (13:20) 12.2 (00:00) 14.5 6.94 (09:50) 5.83 (13:50) 0.2 0 0.1 0 0.1
10-03-2020 16.4 (14:50) 11.8 (00:00) 14.1 11.39 (11:30) 8.61 (11:30) 0 0 0 0 0
09-03-2020 15.6 (13:10) 9.8 (00:00) 12.7 10 (23:40) 7.5 (23:20) 0 0 0 0 0
08-03-2020 15.5 (14:50) 11.3 (00:00) 13.4 15.28 (01:20) 11.94 (01:20) 7 3.1 3.9 0 0
07-03-2020 15.8 (14:40) 10 (00:00) 12.9 14.17 (23:20) 10.56 (23:20) 0 0 0 0 0
06-03-2020 14 (15:20) 9 (00:00) 11.5 16.67 (03:50) 12.22 (00:10) 1 0.6 0.3 0 0.1
05-03-2020 14.7 (16:30) 10.4 (00:00) 12.5 25.28 (01:10) 17.5 (00:50) 11.8 10.5 0.8 0.1 0.4
04-03-2020 14.9 (12:50) 13.4 (00:00) 14.1 23.06 (22:30) 16.39 (22:30) 8.9 0.1 0.2 1 7.6
03-03-2020 14.6 (13:10) 10.4 (00:00) 12.5 23.06 (04:30) 17.22 (04:30) 5.6 3.1 0.7 0 1.8
02-03-2020 13.3 (13:50) 7.8 (00:00) 10.6 22.22 (08:30) 15.28 (08:30) 4.6 3 0.9 0.1 0.6

Gráficas

Temp. máximas Temp. mínimas Temp. medias Precipitaciones Rachas de viento máximas Velocidades máximas media en intervalos de 10 minutos

Datos horarios

Fecha y hora oficial Temperatura (ºC) Velocidad del viento (km/h) Dirección del viento Racha (km/h) Dirección de racha Precipitación (mm) Presión (hPa) Tendencia (hPa) Humedad (%)
2020-03-31 23:00:00 9.1 31 Nordeste 55 Nordeste 1.3 -- -- 78
2020-03-31 22:00:00 9 20 Nordeste 44 Nordeste 1.3 -- -- 77
2020-03-31 21:00:00 9.1 17 Nordeste 35 Nordeste 0.6 -- -- 74
2020-03-31 20:00:00 9 22 Nordeste 51 Nordeste 0.8 -- -- 71
2020-03-31 19:00:00 9 35 Nordeste 57 Nordeste 0.5 -- -- 68
2020-03-31 18:00:00 8.9 34 Nordeste 55 Nordeste 0.3 -- -- 65
2020-03-31 17:00:00 8.6 31 Nordeste 53 Nordeste 1.2 -- -- 59
2020-03-31 16:00:00 10.1 24 Nordeste 54 Nordeste 0 -- -- 47
2020-03-31 15:00:00 9.4 33 Nordeste 56 Nordeste 0 -- -- 48
2020-03-31 14:00:00 9.3 40 Nordeste 73 Nordeste 0 -- -- 48
2020-03-31 13:00:00 9.2 44 Nordeste 69 Nordeste 0 -- -- 49
2020-03-31 12:00:00 9.4 41 Nordeste 66 Nordeste 0 -- -- 50
2020-03-31 11:00:00 8.7 42 Nordeste 70 Nordeste 0 -- -- 55
2020-03-31 10:00:00 7.5 36 Nordeste 61 Nordeste 0 -- -- 55
2020-03-31 09:00:00 6.8 29 Nordeste 50 Nordeste 0 -- -- 54
2020-03-31 08:00:00 7.3 36 Nordeste 59 Nordeste 0 -- -- 52
2020-03-31 07:00:00 7 26 Nordeste 59 Nordeste 0 -- -- 49
2020-03-31 06:00:00 7.9 37 Nordeste 71 Nordeste 0 -- -- 46
2020-03-31 05:00:00 8.1 40 Nordeste 62 Nordeste 0 -- -- 45
2020-03-31 04:00:00 8.3 45 Nordeste 76 Nordeste 0 -- -- 45
2020-03-31 03:00:00 8.2 47 Nordeste 74 Nordeste 0 -- -- 45
2020-03-31 02:00:00 8.5 46 Nordeste 76 Nordeste 0 -- -- 45
2020-03-31 01:00:00 8.4 51 Nordeste 78 Nordeste 0 -- -- 47
2020-03-31 00:00:00 7.2 32 Nordeste 74 Nordeste 0 -- -- 51
2020-03-30 23:00:00 7.7 47 Nordeste 76 Nordeste 0 -- -- 49
2020-03-30 22:00:00 7.7 48 Nordeste 81 Nordeste 0 -- -- 48
2020-03-30 21:00:00 8 53 Nordeste 84 Nordeste 0 -- -- 45
2020-03-30 20:00:00 8.2 54 Nordeste 88 Nordeste 0 -- -- 45
2020-03-30 19:00:00 8.6 65 Nordeste 95 Nordeste 0 -- -- 45
2020-03-30 18:00:00 9 72 Nordeste 92 Nordeste 0 -- -- 43
2020-03-30 17:00:00 9.5 67 Nordeste 90 Nordeste 0 -- -- 43
2020-03-30 16:00:00 9.5 70 Nordeste 94 Nordeste 0 -- -- 42
2020-03-30 15:00:00 9.9 56 Nordeste 88 Nordeste 0 -- -- 41
2020-03-30 14:00:00 9.4 48 Nordeste 93 Nordeste 0 -- -- 40
2020-03-30 13:00:00 9.9 61 Nordeste 101 Nordeste 0 -- -- 41
2020-03-30 12:00:00 9.6 64 Nordeste 94 Nordeste 0 -- -- 44
2020-03-30 11:00:00 9.5 60 Nordeste 97 Nordeste 0 -- -- 45
2020-03-30 10:00:00 9.2 60 Nordeste 92 Nordeste 0 -- -- 49
2020-03-30 09:00:00 8.9 56 Nordeste 96 Nordeste 0 -- -- 50
2020-03-30 08:00:00 9.1 60 Nordeste 99 Nordeste 0 -- -- 51
2020-03-30 07:00:00 9.3 49 Nordeste 82 Nordeste 0 -- -- 52
2020-03-30 06:00:00 9.1 41 Nordeste 87 Nordeste 0 -- -- 52
2020-03-30 05:00:00 9.4 60 Nordeste 97 Nordeste 0 -- -- 55
2020-03-30 04:00:00 9.8 60 Nordeste 93 Nordeste 0 -- -- 57
2020-03-30 03:00:00 9.8 50 Nordeste 87 Nordeste 0 -- -- 59
2020-03-30 02:00:00 9.7 54 Nordeste 80 Nordeste 0 -- -- 62
2020-03-30 01:00:00 10.1 51 Nordeste 86 Nordeste 0 -- -- 64
2020-03-30 00:00:00 10.5 55 Nordeste 82 Nordeste 0 -- -- 66
2020-03-29 23:00:00 10.9 48 Nordeste 82 Norte 0 -- -- 68
2020-03-29 22:00:00 11.3 50 Nordeste 86 Nordeste 0 -- -- 69
2020-03-29 21:00:00 11.6 54 Nordeste 81 Nordeste 0 -- -- 66
2020-03-29 20:00:00 12.3 51 Nordeste 80 Nordeste 0 -- -- 62
2020-03-29 19:00:00 13 49 Nordeste 73 Nordeste 0 -- -- 58
2020-03-29 18:00:00 13 53 Nordeste 68 Nordeste 0 -- -- 59
2020-03-29 17:00:00 13.1 51 Nordeste 62 Nordeste 0 -- -- 59
2020-03-29 16:00:00 13.6 48 Nordeste 63 Nordeste 0 -- -- 60
2020-03-29 15:00:00 13.3 51 Nordeste 66 Nordeste 0 -- -- 61
2020-03-29 14:00:00 13.3 46 Nordeste 57 Nordeste 0 -- -- 60
2020-03-29 13:00:00 13.6 30 Nordeste 49 Nordeste 0 -- -- 59
2020-03-29 12:00:00 12.6 32 Nordeste 58 Nordeste 0 -- -- 63
2020-03-29 11:00:00 11.7 33 Nordeste 50 Nordeste 0 -- -- 66
2020-03-29 10:00:00 11.2 29 Nordeste 44 Nordeste 0 -- -- 69
2020-03-29 09:00:00 10 21 Nordeste 36 Nordeste 0 -- -- 71
2020-03-29 08:00:00 9.9 22 Nordeste 36 Nordeste 0 -- -- 71
2020-03-29 07:00:00 9.9 22 Nordeste 32 Este 0 -- -- 71
2020-03-29 06:00:00 9.8 18 Nordeste 32 Nordeste 0 -- -- 71
2020-03-29 05:00:00 10.1 19 Nordeste 35 Nordeste 0 -- -- 70
2020-03-29 03:00:00 10.5 18 Nordeste 27 Nordeste 0 -- -- 72
2020-03-29 01:00:00 10.8 17 Nordeste 24 Nordeste 0 -- -- 72
2020-03-29 00:00:00 11.2 15 Nordeste 23 Nordeste 0 -- -- 72
2020-03-28 23:00:00 11.2 13 Nordeste 22 Nordeste 0 -- -- 72
2020-03-28 22:00:00 11.2 12 Nordeste 18 Nordeste 0 -- -- 70
2020-03-28 21:00:00 12.1 14 Nordeste 29 Nordeste 0 -- -- 70
2020-03-28 20:00:00 12.2 24 Nordeste 28 Nordeste 0 -- -- 66
2020-03-28 19:00:00 13.4 18 Nordeste 22 Nordeste 0 -- -- 58
2020-03-28 18:00:00 14.8 12 Nordeste 17 Nordeste 0 -- -- 50
2020-03-28 17:00:00 15.3 14 Nordeste 19 Nordeste 0 -- -- 47
2020-03-28 16:00:00 15.5 17 Nordeste 21 Nordeste 0 -- -- 47
2020-03-28 15:00:00 16.1 10 Norte 21 Sudoeste 0 -- -- 46
2020-03-28 14:00:00 16.8 15 Sudoeste 22 Sudoeste 0 -- -- 43
2020-03-28 13:00:00 16.6 9 Sudoeste 18 Sudoeste 0 -- -- 42
2020-03-28 12:00:00 16.1 9 Oeste 19 Sudoeste 0 -- -- 40
2020-03-28 11:00:00 15.2 12 Sur 19 Sur 0 -- -- 40
2020-03-28 10:00:00 12.2 10 Sudeste 19 Sudeste 0 -- -- 43
2020-03-28 09:00:00 10.5 14 Sudeste 24 Sudeste 0 -- -- 44
2020-03-28 08:00:00 9.6 18 Sudeste 28 Sudeste 0 -- -- 45
2020-03-28 07:00:00 9.1 24 Sudeste 34 Sudeste 0 -- -- 47
2020-03-28 06:00:00 9.6 22 Sudeste 30 Sudeste 0 -- -- 48
2020-03-28 05:00:00 9.4 21 Sudeste 26 Sudeste 0 -- -- 50
2020-03-28 04:00:00 10 22 Sudeste 29 Sudeste 0 -- -- 52
2020-03-28 03:00:00 8.3 13 Este 22 Este 0 -- -- 55
2020-03-28 02:00:00 8.5 10 Nordeste 18 Sudeste 0 -- -- 53
2020-03-28 01:00:00 9.4 13 Sudeste 24 Sudeste 0 -- -- 52
2020-03-28 00:00:00 10 19 Sudeste 31 Este 0 -- -- 52
2020-03-27 23:00:00 10.2 22 Este 30 Este 0 -- -- 53
2020-03-27 22:00:00 10.3 19 Este 30 Nordeste 0 -- -- 53
2020-03-27 21:00:00 10.6 18 Nordeste 30 Nordeste 0 -- -- 53
2020-03-27 20:00:00 11.6 16 Nordeste 38 Nordeste 0 -- -- 50
2020-03-27 19:00:00 12.4 25 Nordeste 40 Nordeste 0 -- -- 48
2020-03-27 18:00:00 12.6 30 Nordeste 42 Nordeste 0 -- -- 47
2020-03-27 17:00:00 13.1 35 Nordeste 46 Nordeste 0 -- -- 45
2020-03-27 16:00:00 12.7 44 Nordeste 62 Nordeste 0 -- -- 44
2020-03-27 15:00:00 12.6 49 Nordeste 58 Nordeste 0 -- -- 42
2020-03-27 14:00:00 12.7 45 Nordeste 52 Nordeste 0 -- -- 40
2020-03-27 13:00:00 12.8 37 Nordeste 50 Nordeste 0 -- -- 40
2020-03-27 12:00:00 12 30 Nordeste 48 Nordeste 0 -- -- 41
2020-03-27 11:00:00 10.8 33 Nordeste 49 Nordeste 0 -- -- 43
2020-03-27 10:00:00 10.2 35 Nordeste 53 Nordeste 0 -- -- 47
2020-03-27 09:00:00 9.8 27 Nordeste 51 Nordeste 0 -- -- 49
2020-03-27 08:00:00 9.2 30 Nordeste 60 Nordeste 0 -- -- 49
2020-03-27 07:00:00 8.9 33 Nordeste 58 Nordeste 0 -- -- 49
2020-03-27 06:00:00 8.9 33 Nordeste 57 Nordeste 0 -- -- 50
2020-03-27 05:00:00 9.3 31 Nordeste 44 Nordeste 0 -- -- 52
2020-03-27 04:00:00 9.5 19 Nordeste 41 Nordeste 0 -- -- 52
2020-03-27 03:00:00 10.3 30 Nordeste 54 Nordeste 0 -- -- 52
2020-03-27 02:00:00 10.7 37 Nordeste 56 Nordeste 0 -- -- 52
2020-03-27 01:00:00 10.9 29 Nordeste 51 Nordeste 0 -- -- 51
2020-03-27 00:00:00 10.7 34 Nordeste 50 Nordeste 0 -- -- 50
2020-03-26 23:00:00 10.4 28 Nordeste 54 Nordeste 0 -- -- 50
2020-03-26 22:00:00 10.7 42 Nordeste 62 Nordeste 0 -- -- 52
2020-03-26 21:00:00 10.9 50 Nordeste 58 Nordeste 0 -- -- 53
2020-03-26 20:00:00 11 44 Nordeste 53 Nordeste 0 -- -- 52
2020-03-26 19:00:00 11 43 Nordeste 52 Nordeste 0 -- -- 51
2020-03-26 18:00:00 11.4 38 Nordeste 47 Nordeste 0 -- -- 51
2020-03-26 17:00:00 11.9 36 Nordeste 49 Nordeste 0 -- -- 52
2020-03-26 16:00:00 12.1 41 Nordeste 50 Nordeste 0 -- -- 52
2020-03-26 15:00:00 12.3 40 Nordeste 52 Nordeste 0 -- -- 54
2020-03-26 14:00:00 12.5 40 Nordeste 48 Nordeste 0 -- -- 54
2020-03-26 13:00:00 12.6 35 Nordeste 40 Nordeste 0 -- -- 58
2020-03-26 12:00:00 12.4 33 Nordeste 40 Nordeste 0 -- -- 59
2020-03-26 11:00:00 12.1 29 Nordeste 64 Nordeste 0 -- -- 62
2020-03-26 10:00:00 11.6 21 Nordeste 36 Nordeste 0 -- -- 64
2020-03-26 09:00:00 11 22 Nordeste 35 Nordeste 0 -- -- 69
2020-03-26 08:00:00 10.3 19 Nordeste 29 Nordeste 0 -- -- 69
2020-03-26 07:00:00 10.6 19 Nordeste 35 Nordeste 0 -- -- 68
2020-03-26 06:00:00 11 25 Nordeste 38 Nordeste 0 -- -- 67
2020-03-26 05:00:00 10.8 25 Nordeste 33 Norte 0 -- -- 69
2020-03-26 04:00:00 11.3 24 Nordeste 31 Nordeste 0 -- -- 69
2020-03-26 03:00:00 11.5 21 Nordeste 32 Nordeste 0 -- -- 72
2020-03-26 02:00:00 11.7 20 Nordeste 29 Nordeste 0 -- -- 74
2020-03-26 01:00:00 11.1 15 Nordeste 29 Nordeste 0 -- -- 76
2020-03-26 00:00:00 11.5 19 Nordeste 26 Nordeste 0 -- -- 77
2020-03-25 23:00:00 11.4 12 Nordeste 21 Nordeste 0 -- -- 77
2020-03-25 22:00:00 11.6 11 Norte 17 Norte 0 -- -- 75
2020-03-25 21:00:00 12 8 Norte 20 Norte 0 -- -- 74
2020-03-25 20:00:00 11.9 14 Norte 20 Nordeste 0 -- -- 73
2020-03-25 19:00:00 12.9 10 Norte 14 Nordeste 0 -- -- 70
2020-03-25 18:00:00 13.8 5 Norte 16 Norte 0 -- -- 70
2020-03-25 17:00:00 13.5 7 Norte 18 Noroeste 0 -- -- 72
2020-03-25 16:00:00 13.8 9 Norte 17 Noroeste 0 -- -- 73
2020-03-25 15:00:00 13.2 9 Norte 19 Norte 0 -- -- 75
2020-03-25 14:00:00 13.5 8 Norte 16 Noroeste 0 -- -- 76
2020-03-25 13:00:00 13.8 5 Norte 11 Norte 0 -- -- 80
2020-03-25 12:00:00 12.5 5 Oeste 12 Oeste 0 -- -- 83
2020-03-25 11:00:00 12.1 0 Calma 10 Noroeste 0 -- -- 84
2020-03-25 10:00:00 12 0 Calma 9 Oeste 0 -- -- 84
2020-03-25 09:00:00 11.7 0 Calma 8 Norte 0 -- -- 84
2020-03-25 08:00:00 11.8 0 Calma 10 Noroeste 0 -- -- 83
2020-03-25 07:00:00 12 0 Calma 7 Norte 0 -- -- 82
2020-03-25 06:00:00 11.8 0 Calma -- -- 0.1 -- -- 81
2020-03-25 05:00:00 11.1 0 Calma 6 Sudoeste 0 -- -- 81
2020-03-25 04:00:00 10.8 0 Calma -- -- 0 -- -- 83
2020-03-25 03:00:00 11.6 0 Calma -- -- 0 -- -- 83
2020-03-25 02:00:00 12 0 Calma -- -- 0 -- -- 82
2020-03-25 01:00:00 11.7 0 Calma -- -- 0 -- -- 82
2020-03-25 00:00:00 12.1 0 Calma 7 Nordeste 0 -- -- 82
2020-03-24 23:00:00 12 0 Calma 8 Nordeste 0 -- -- 81
2020-03-24 22:00:00 11.8 6 Nordeste 9 Nordeste 0 -- -- 81
2020-03-24 21:00:00 12.4 9 Nordeste 12 Norte 0 -- -- 78
2020-03-24 20:00:00 12.8 7 Nordeste 13 Norte 0 -- -- 74
2020-03-24 19:00:00 14 12 Nordeste 18 Nordeste 0 -- -- 70
2020-03-24 18:00:00 15.1 16 Norte 21 Nordeste 0 -- -- 65
2020-03-24 17:00:00 16.1 5 Norte 19 Nordeste 0 -- -- 62
2020-03-24 16:00:00 16.4 14 Norte 18 Norte 0 -- -- 61
2020-03-24 15:00:00 16.1 9 Norte 18 Norte 0 -- -- 62
2020-03-24 14:00:00 15.9 13 Norte 17 Nordeste 0 -- -- 64
2020-03-24 13:00:00 15.5 9 Nordeste 12 Nordeste 0 -- -- 66
2020-03-24 12:00:00 15.4 9 Nordeste 14 Nordeste 0 -- -- 66
2020-03-24 11:00:00 14.2 10 Nordeste 14 Nordeste 0 -- -- 68
2020-03-24 10:00:00 12.9 6 Nordeste 15 Este 0 -- -- 72
2020-03-24 09:00:00 11.6 6 Nordeste 14 Nordeste 0 -- -- 75
2020-03-24 08:00:00 10.2 12 Nordeste 21 Este 0 -- -- 75
2020-03-24 07:00:00 10.1 15 Nordeste 19 Este 0 -- -- 75
2020-03-24 06:00:00 10.9 13 Nordeste 27 Nordeste 0 -- -- 74
2020-03-24 05:00:00 12 25 Nordeste 39 Nordeste 0 -- -- 73
2020-03-24 04:00:00 11.6 33 Nordeste 41 Nordeste 0 -- -- 69
2020-03-24 03:00:00 11.4 34 Nordeste 45 Nordeste 0 -- -- 66
2020-03-24 02:00:00 10.9 29 Nordeste 45 Nordeste 0 -- -- 65
2020-03-24 01:00:00 11 29 Nordeste 46 Nordeste 0 -- -- 65
2020-03-24 00:00:00 10.9 36 Nordeste 54 Nordeste 0 -- -- 63
2020-03-23 23:00:00 10.9 32 Nordeste 54 Nordeste 0 -- -- 62
2020-03-23 22:00:00 11.1 42 Nordeste 55 Nordeste 0 -- -- 61
2020-03-23 21:00:00 11 37 Nordeste 57 Nordeste 0 -- -- 60
2020-03-23 20:00:00 11 45 Nordeste 57 Nordeste 0 -- -- 60
2020-03-23 19:00:00 11.1 42 Nordeste 53 Nordeste 0 -- -- 59
2020-03-23 18:00:00 11.3 44 Nordeste 58 Nordeste 0 -- -- 59
2020-03-23 17:00:00 11.3 46 Nordeste 55 Nordeste 0 -- -- 59
2020-03-23 16:00:00 11.4 43 Nordeste 55 Nordeste 0 -- -- 61
2020-03-23 15:00:00 11 46 Nordeste 57 Nordeste 0 -- -- 66
2020-03-23 14:00:00 11.3 42 Nordeste 59 Nordeste 0 -- -- 69
2020-03-23 13:00:00 11.5 48 Nordeste 58 Nordeste 0 -- -- 70
2020-03-23 12:00:00 11.8 46 Nordeste 58 Nordeste 0 -- -- 71
2020-03-23 11:00:00 11.8 48 Nordeste 58 Nordeste 0 -- -- 72
2020-03-23 10:00:00 11.6 42 Nordeste 59 Nordeste 0 -- -- 73
2020-03-23 09:00:00 11.5 45 Nordeste 56 Nordeste 0 -- -- 76
2020-03-23 08:00:00 11.8 45 Nordeste 60 Nordeste 0 -- -- 77
2020-03-23 07:00:00 11.7 47 Nordeste 59 Nordeste 0 -- -- 78
2020-03-23 06:00:00 11.7 46 Nordeste 57 Nordeste 0 -- -- 78
2020-03-23 05:00:00 12.1 46 Nordeste 55 Nordeste 0 -- -- 77
2020-03-23 04:00:00 12.1 44 Nordeste 54 Nordeste 0 -- -- 77
2020-03-23 03:00:00 12 46 Nordeste 57 Nordeste 0 -- -- 77
2020-03-23 02:00:00 12.1 46 Nordeste 55 Nordeste 0 -- -- 77
2020-03-23 01:00:00 12.2 42 Nordeste 60 Nordeste 0 -- -- 77
2020-03-23 00:00:00 12.2 44 Nordeste 55 Nordeste 0 -- -- 78
2020-03-22 23:00:00 12.2 46 Nordeste 55 Nordeste 0 -- -- 78
2020-03-22 22:00:00 12.3 44 Nordeste 55 Nordeste 0 -- -- 78
2020-03-22 21:00:00 12.4 46 Nordeste 57 Nordeste 0 -- -- 78
2020-03-22 20:00:00 12.6 42 Nordeste 58 Nordeste 0 -- -- 77
2020-03-22 19:00:00 12.9 40 Nordeste 51 Nordeste 0 -- -- 75
2020-03-22 18:00:00 13.3 36 Nordeste 43 Nordeste 0 -- -- 73
2020-03-22 17:00:00 13.5 32 Nordeste 40 Nordeste 0 -- -- 69
2020-03-22 16:00:00 13.7 30 Nordeste 36 Nordeste 0 -- -- 71
2020-03-22 15:00:00 13.9 28 Nordeste 33 Nordeste 0 -- -- 70
2020-03-22 14:00:00 13.9 27 Nordeste 32 Nordeste 0 -- -- 71
2020-03-22 13:00:00 13.8 23 Norte 27 Nordeste 0 -- -- 73
2020-03-22 12:00:00 13.7 21 Nordeste 27 Nordeste 0 -- -- 73
2020-03-22 11:00:00 12.9 18 Nordeste 28 Nordeste 0 -- -- 73
2020-03-22 10:00:00 12.2 22 Nordeste 31 Nordeste 0 -- -- 77
2020-03-22 09:00:00 12.1 22 Nordeste 28 Norte 0 -- -- 77
2020-03-22 08:00:00 11.8 23 Nordeste 33 Nordeste 0 -- -- 77
2020-03-22 07:00:00 11.6 23 Norte 32 Nordeste 0 -- -- 78
2020-03-22 06:00:00 11.4 24 Nordeste 31 Nordeste 0 -- -- 78
2020-03-22 05:00:00 11.5 22 Nordeste 30 Nordeste 0 -- -- 79
2020-03-22 04:00:00 11.6 20 Nordeste 27 Nordeste 0 -- -- 79
2020-03-22 03:00:00 11.8 20 Norte 26 Norte 0 -- -- 79
2020-03-22 02:00:00 12 21 Nordeste 24 Nordeste 0 -- -- 80
2020-03-22 01:00:00 12.2 12 Nordeste 17 Nordeste 0 -- -- 80
2020-03-22 00:00:00 12 10 Nordeste 19 Nordeste 0 -- -- 80
2020-03-21 23:00:00 11.8 11 Este 17 Este 0 -- -- 80
2020-03-21 22:00:00 11.5 13 Nordeste 21 Nordeste 0 -- -- 80
2020-03-21 21:00:00 12 13 Nordeste 22 Nordeste 0 -- -- 79
2020-03-21 20:00:00 12.2 15 Nordeste 20 Nordeste 0 -- -- 79
2020-03-21 19:00:00 12.6 15 Nordeste 22 Nordeste 0 -- -- 78
2020-03-21 18:00:00 12.6 18 Nordeste 22 Nordeste 0 -- -- 78
2020-03-21 17:00:00 13.2 17 Nordeste 21 Nordeste 0 -- -- 78
2020-03-21 16:00:00 13.3 18 Nordeste 24 Nordeste 0 -- -- 79
2020-03-21 15:00:00 13.2 18 Nordeste 25 Nordeste 0 -- -- 79
2020-03-21 14:00:00 13.4 20 Nordeste 27 Nordeste 0 -- -- 78
2020-03-21 13:00:00 14.2 21 Nordeste 26 Nordeste 0 -- -- 82
2020-03-21 12:00:00 13 21 Nordeste 32 Nordeste 0 -- -- 84
2020-03-21 11:00:00 12.1 26 Nordeste 33 Nordeste 0 -- -- 84
2020-03-21 10:00:00 12 26 Nordeste 38 Nordeste 0 -- -- 84
2020-03-21 09:00:00 12.1 31 Nordeste 37 Nordeste 0 -- -- 84
2020-03-21 08:00:00 11.9 30 Nordeste 37 Nordeste 0.1 -- -- 84
2020-03-21 07:00:00 12.2 29 Nordeste 36 Nordeste 0 -- -- 84
2020-03-21 06:00:00 12.5 22 Norte 28 Norte 0 -- -- 84
2020-03-21 05:00:00 12.1 14 Nordeste 19 Nordeste 0 -- -- 84
2020-03-21 04:00:00 12 15 Nordeste 25 Nordeste 0 -- -- 84
2020-03-21 03:00:00 12.1 18 Nordeste 23 Nordeste 0 -- -- 84
2020-03-21 02:00:00 12.1 14 Nordeste 20 Nordeste 0 -- -- 84
2020-03-21 01:00:00 12.2 10 Nordeste 15 Nordeste 0.2 -- -- 84
2020-03-21 00:00:00 12.1 9 Nordeste 19 Este 0.2 -- -- 84
2020-03-20 23:00:00 12.1 12 Nordeste 18 Nordeste 0 -- -- 84
2020-03-20 22:00:00 12.1 8 Este 18 Nordeste 0.1 -- -- 84
2020-03-20 21:00:00 12.6 3 Nordeste 13 Nordeste 1 -- -- 83
2020-03-20 20:00:00 12.6 0 Calma -- -- 0.4 -- -- 82
2020-03-20 19:00:00 13.1 0 Calma 3 Noroeste 0.1 -- -- 81
2020-03-20 18:00:00 13.3 0 Calma 8 Oeste 0 -- -- 80
2020-03-20 17:00:00 13.3 7 Oeste 10 Oeste 0.2 -- -- 80
2020-03-20 16:00:00 13 6 Oeste 17 Sudoeste 0 -- -- 80
2020-03-20 15:00:00 14 10 Sudoeste 16 Oeste 0 -- -- 81
2020-03-20 14:00:00 14.4 8 Oeste 13 Oeste 0 -- -- 81
2020-03-20 13:00:00 14.3 3 Norte 11 Nordeste 0 -- -- 83
2020-03-20 12:00:00 13.7 6 Nordeste 9 Nordeste 0 -- -- 83
2020-03-20 11:00:00 13.8 2 Norte 13 Este 0 -- -- 83
2020-03-20 10:00:00 13.2 9 Este 14 Este 0 -- -- 84
2020-03-20 09:00:00 12.6 4 Sudeste 8 Este 0 -- -- 84
2020-03-20 08:00:00 12 7 Sudeste 8 Este 0.2 -- -- 84
2020-03-20 07:00:00 12.1 5 Sur 7 Sur 0.3 -- -- 84
2020-03-20 06:00:00 11.8 4 Sur 10 Sudeste 0 -- -- 84
2020-03-20 05:00:00 11.6 10 Sudeste 12 Sudeste 0 -- -- 84
2020-03-20 04:00:00 11.6 0 Calma -- -- 0 -- -- 84
2020-03-20 03:00:00 11.9 0 Calma 6 Norte 0 -- -- 83
2020-03-20 02:00:00 12.1 6 Nordeste 14 Nordeste 0 -- -- 83
2020-03-20 01:00:00 12.2 9 Nordeste 17 Nordeste 0.3 -- -- 82
2020-03-20 00:00:00 12.1 9 Nordeste 17 Nordeste 0.1 -- -- 81
2020-03-19 23:00:00 12.1 11 Nordeste 30 Nordeste 0 -- -- 81
2020-03-19 22:00:00 12.1 16 Nordeste 36 Nordeste 0 -- -- 81
2020-03-19 21:00:00 12.1 25 Nordeste 35 Nordeste 0 -- -- 79
2020-03-19 20:00:00 12.3 23 Nordeste 28 Nordeste 0 -- -- 77
2020-03-19 19:00:00 12.5 22 Nordeste 30 Nordeste 0 -- -- 76
2020-03-19 18:00:00 12.7 24 Nordeste 30 Nordeste 0 -- -- 74
2020-03-19 17:00:00 13.1 22 Nordeste 25 Nordeste 0 -- -- 71
2020-03-19 16:00:00 14.2 20 Nordeste 24 Nordeste 0 -- -- 69
2020-03-19 15:00:00 14.2 21 Nordeste 26 Nordeste 0 -- -- 69
2020-03-19 14:00:00 14.4 21 Norte 24 Norte 0 -- -- 68
2020-03-19 13:00:00 14.6 18 Nordeste 25 Nordeste 0 -- -- 71
2020-03-19 12:00:00 14.2 18 Norte 22 Norte 0 -- -- 76
2020-03-19 11:00:00 12.7 19 Nordeste 27 Nordeste 0 -- -- 79
2020-03-19 10:00:00 12.3 21 Nordeste 35 Nordeste 0 -- -- 80
2020-03-19 09:00:00 12 29 Nordeste 35 Nordeste 0 -- -- 80
2020-03-19 08:00:00 11.7 26 Nordeste 37 Nordeste 0 -- -- 81
2020-03-19 07:00:00 11.7 24 Nordeste 41 Nordeste 0 -- -- 81
2020-03-19 06:00:00 11.9 33 Nordeste 41 Nordeste 0 -- -- 80
2020-03-19 05:00:00 11.9 32 Nordeste 41 Nordeste 0 -- -- 81
2020-03-19 04:00:00 11.9 31 Nordeste 41 Nordeste 0 -- -- 80
2020-03-19 03:00:00 11.9 28 Nordeste 38 Nordeste 0 -- -- 81
2020-03-19 02:00:00 11.9 29 Nordeste 38 Nordeste 0 -- -- 80
2020-03-19 01:00:00 12.2 30 Nordeste 38 Nordeste 0 -- -- 81
2020-03-19 00:00:00 12.1 27 Nordeste 37 Nordeste 0 -- -- 80
2020-03-18 23:00:00 12.2 28 Nordeste 39 Nordeste 0 -- -- 80
2020-03-18 22:00:00 12.1 25 Nordeste 38 Nordeste 0 -- -- 80
2020-03-18 21:00:00 12.2 21 Nordeste 38 Nordeste 0 -- -- 80
2020-03-18 20:00:00 12.3 21 Nordeste 49 Nordeste 0 -- -- 79
2020-03-18 19:00:00 12.2 33 Nordeste 42 Nordeste 0 -- -- 78
2020-03-18 18:00:00 12.8 36 Nordeste 44 Nordeste 0 -- -- 76
2020-03-18 17:00:00 13.2 36 Nordeste 44 Nordeste 0 -- -- 74
2020-03-18 16:00:00 14.3 31 Nordeste 40 Nordeste 0 -- -- 72
2020-03-18 15:00:00 14.4 29 Nordeste 35 Nordeste 0 -- -- 70
2020-03-18 14:00:00 14.8 24 Nordeste 30 Nordeste 0 -- -- 69
2020-03-18 13:00:00 14.6 21 Nordeste 26 Nordeste 0 -- -- 69
2020-03-18 12:00:00 14.7 17 Norte 22 Nordeste 0 -- -- 69
2020-03-18 11:00:00 14.5 10 Nordeste 13 Norte 0 -- -- 68
2020-03-18 10:00:00 14 5 Nordeste 15 Sudeste 0 -- -- 67
2020-03-18 09:00:00 12.6 0 Calma 15 Este 0 -- -- 72
2020-03-18 08:00:00 10.6 5 Nordeste 12 Este 0 -- -- 74
2020-03-18 07:00:00 10.7 7 Nordeste 20 Este 0 -- -- 74
2020-03-18 06:00:00 10.5 14 Este 23 Norte 0 -- -- 76
2020-03-18 05:00:00 10.8 11 Nordeste 18 Nordeste 0 -- -- 76
2020-03-18 04:00:00 11.3 13 Nordeste 20 Nordeste 0 -- -- 75
2020-03-18 03:00:00 11 10 Este 22 Norte 0 -- -- 76
2020-03-18 02:00:00 11.3 11 Nordeste 22 Nordeste 0 -- -- 75
2020-03-18 01:00:00 11.8 17 Nordeste 23 Nordeste 0 -- -- 75
2020-03-18 00:00:00 11.6 17 Nordeste 25 Nordeste 0 -- -- 75
2020-03-17 23:00:00 12 14 Nordeste 44 Nordeste 0 -- -- 76
2020-03-17 22:00:00 12.5 32 Nordeste 42 Nordeste 0 -- -- 76
2020-03-17 21:00:00 12.6 29 Nordeste 35 Nordeste 0 -- -- 74
2020-03-17 20:00:00 12.5 23 Nordeste 39 Nordeste 0 -- -- 70
2020-03-17 19:00:00 13.3 23 Nordeste 30 Nordeste 0 -- -- 65
2020-03-17 18:00:00 13.8 26 Nordeste 51 Nordeste 0 -- -- 64
2020-03-17 17:00:00 13.1 42 Nordeste 60 Nordeste 0 -- -- 65
2020-03-17 16:00:00 13.3 49 Nordeste 56 Nordeste 0 -- -- 62
2020-03-17 15:00:00 13.4 44 Nordeste 54 Nordeste 0 -- -- 60
2020-03-17 14:00:00 13.2 39 Nordeste 55 Nordeste 0 -- -- 57
2020-03-17 13:00:00 13.1 45 Nordeste 55 Nordeste 0 -- -- 55
2020-03-17 12:00:00 12.9 45 Nordeste 57 Nordeste 0 -- -- 51
2020-03-17 11:00:00 12.2 39 Nordeste 62 Nordeste 0 -- -- 51
2020-03-17 10:00:00 12 32 Nordeste 55 Nordeste 0 -- -- 53
2020-03-17 09:00:00 11.2 38 Nordeste 70 Nordeste 0 -- -- 53
2020-03-17 08:00:00 10.7 41 Nordeste 70 Nordeste 0 -- -- 55
2020-03-17 07:00:00 10.9 52 Nordeste 70 Nordeste 0 -- -- 55
2020-03-17 06:00:00 11 53 Nordeste 71 Nordeste 0 -- -- 54
2020-03-17 05:00:00 11 57 Nordeste 72 Nordeste 0 -- -- 54
2020-03-17 04:00:00 10.9 55 Nordeste 75 Nordeste 0 -- -- 55
2020-03-17 03:00:00 11.2 51 Nordeste 65 Nordeste 0 -- -- 56
2020-03-17 02:00:00 11 55 Nordeste 67 Nordeste 0 -- -- 55
2020-03-17 01:00:00 11 57 Nordeste 70 Norte 0 -- -- 59
2020-03-17 00:00:00 10.8 54 Nordeste 69 Nordeste 0 -- -- 59
2020-03-16 23:00:00 10.9 54 Nordeste 69 Nordeste 0 -- -- 59
2020-03-16 22:00:00 10.9 51 Nordeste 65 Nordeste 0 -- -- 59
2020-03-16 21:00:00 11 50 Nordeste 63 Nordeste 0 -- -- 58
2020-03-16 20:00:00 10.6 51 Nordeste 60 Norte 0 -- -- 55
2020-03-16 19:00:00 10.8 48 Nordeste 60 Nordeste 0 -- -- 53
2020-03-16 18:00:00 11.3 46 Nordeste 57 Nordeste 0 -- -- 52
2020-03-16 17:00:00 11.4 45 Nordeste 55 Nordeste 0 -- -- 50
2020-03-16 16:00:00 11.4 44 Nordeste 56 Nordeste 0 -- -- 50
2020-03-16 15:00:00 11.6 45 Nordeste 55 Nordeste 0 -- -- 49
2020-03-16 14:00:00 11.5 45 Norte 56 Nordeste 0 -- -- 51
2020-03-16 13:00:00 11.6 46 Norte 57 Nordeste 0 -- -- 52
2020-03-16 12:00:00 11.4 45 Norte 57 Nordeste 0 -- -- 54
2020-03-16 11:00:00 11.3 46 Nordeste 58 Nordeste 0 -- -- 55
2020-03-16 10:00:00 10.9 44 Norte 55 Norte 0 -- -- 57
2020-03-16 09:00:00 10.1 49 Norte 63 Nordeste 0.1 -- -- 59
2020-03-16 08:00:00 9.9 48 Norte 59 Norte 0 -- -- 61
2020-03-16 07:00:00 10.1 47 Norte 58 Norte 0 -- -- 63
2020-03-16 06:00:00 9.8 44 Norte 62 Norte 0 -- -- 65
2020-03-16 05:00:00 9.4 42 Norte 58 Norte 0 -- -- 67
2020-03-16 04:00:00 9 39 Norte 70 Norte 0.8 -- -- 66
2020-03-16 03:00:00 9.7 45 Norte 55 Norte 0 -- -- 61
2020-03-16 02:00:00 10.1 41 Norte 59 Norte 0 -- -- 60
2020-03-16 01:00:00 9.8 35 Norte 53 Norte 0 -- -- 62
2020-03-16 00:00:00 9.7 39 Norte 52 Norte 0 -- -- 64
2020-03-15 23:00:00 9.6 41 Norte 53 Norte 0 -- -- 66
2020-03-15 22:00:00 9.3 29 Norte 58 Noroeste 0.6 -- -- 67
2020-03-15 21:00:00 8.5 15 Noroeste 36 Noroeste 0.1 -- -- 64
2020-03-15 20:00:00 8.4 25 Norte 51 Norte 0 -- -- 60
2020-03-15 19:00:00 9.3 25 Noroeste 42 Norte 0.1 -- -- 61
2020-03-15 18:00:00 10.2 19 Noroeste 37 Noroeste 0 -- -- 60
2020-03-15 17:00:00 10.9 22 Noroeste 54 Noroeste 0 -- -- 58
2020-03-15 16:00:00 11.5 21 Noroeste 42 Noroeste 0.1 -- -- 61
2020-03-15 15:00:00 11.1 12 Noroeste 35 Oeste 0 -- -- 63
2020-03-15 14:00:00 9.8 25 Noroeste 34 Noroeste 0 -- -- 66
2020-03-15 13:00:00 10.4 12 Noroeste 24 Noroeste 0.1 -- -- 73
2020-03-15 12:00:00 9.1 22 Noroeste 35 Noroeste 0.9 -- -- 75
2020-03-15 11:00:00 9 24 Noroeste 45 Norte 1.8 -- -- 79
2020-03-15 10:00:00 9.5 24 Noroeste 44 Noroeste 4.8 -- -- 78
2020-03-15 09:00:00 12.5 28 Sur 40 Sudoeste 0 -- -- 77
2020-03-15 08:00:00 11.9 30 Sudoeste 42 Sudoeste 0 -- -- 77
2020-03-15 07:00:00 12.2 27 Sudoeste 36 Sudoeste 0 -- -- 77
2020-03-15 06:00:00 11.9 25 Sudoeste 33 Sudoeste 0 -- -- 74
2020-03-15 05:00:00 11.5 19 Sudoeste 32 Sudoeste 0 -- -- 74
2020-03-15 04:00:00 11.4 20 Sudoeste 26 Sudoeste 0 -- -- 78
2020-03-15 03:00:00 10 8 Sur 15 Sudoeste 0 -- -- 77
2020-03-15 02:00:00 9.2 7 Sur 10 Sur 0 -- -- 75
2020-03-15 01:00:00 9.5 0 Calma 10 Sudeste 0 -- -- 75
2020-03-15 00:00:00 9.7 6 Este 14 Sudeste 0 -- -- 74
2020-03-14 23:00:00 9.9 7 Este 10 Este 0 -- -- 72
2020-03-14 22:00:00 10.1 5 Nordeste 16 Nordeste 0 -- -- 70
2020-03-14 21:00:00 11.5 14 Nordeste 21 Nordeste 0 -- -- 68
2020-03-14 20:00:00 11.5 16 Norte 22 Nordeste 0 -- -- 65
2020-03-14 19:00:00 12.5 19 Norte 23 Norte 0 -- -- 60
2020-03-14 18:00:00 13.6 18 Norte 24 Nordeste 0 -- -- 54
2020-03-14 17:00:00 14.3 19 Nordeste 24 Nordeste 0 -- -- 50
2020-03-14 16:00:00 14.9 18 Nordeste 21 Nordeste 0 -- -- 49
2020-03-14 15:00:00 15 16 Norte 21 Norte 0 -- -- 48
2020-03-14 14:00:00 15.4 15 Norte 19 Norte 0 -- -- 49
2020-03-14 13:00:00 15.4 14 Norte 23 Nordeste 0 -- -- 49
2020-03-14 12:00:00 15.2 13 Nordeste 20 Nordeste 0 -- -- 51
2020-03-14 11:00:00 14.3 10 Nordeste 15 Nordeste 0 -- -- 54
2020-03-14 10:00:00 13.4 3 Nordeste 9 Este 0 -- -- 59
2020-03-14 09:00:00 11.7 3 Nordeste 12 Norte 0 -- -- 60
2020-03-14 08:00:00 11.4 10 Nordeste 18 Norte 0 -- -- 61
2020-03-14 07:00:00 10.7 8 Este 21 Este 0 -- -- 62
2020-03-14 06:00:00 10.7 10 Nordeste 17 Este 0 -- -- 62
2020-03-14 05:00:00 11.1 10 Nordeste 20 Nordeste 0 -- -- 61
2020-03-14 04:00:00 9.7 12 Este 19 Este 0 -- -- 62
2020-03-14 03:00:00 10.2 13 Nordeste 18 Nordeste 0 -- -- 61
2020-03-14 02:00:00 10.3 14 Nordeste 21 Nordeste 0 -- -- 61
2020-03-14 01:00:00 9.2 14 Nordeste 22 Este 0 -- -- 60
2020-03-14 00:00:00 10.2 13 Nordeste 31 Nordeste 0 -- -- 59
2020-03-13 23:00:00 10.3 27 Nordeste 35 Nordeste 0 -- -- 58
2020-03-13 22:00:00 10.5 30 Norte 84 Norte 0 -- -- 57
2020-03-13 21:00:00 10.5 28 Norte 36 Norte 0 -- -- 59
2020-03-13 20:00:00 10.6 31 Norte 40 Norte 0 -- -- 59
2020-03-13 19:00:00 11 31 Nordeste 42 Nordeste 0 -- -- 56
2020-03-13 18:00:00 11.6 35 Norte 42 Nordeste 0 -- -- 53
2020-03-13 17:00:00 11.9 36 Nordeste 44 Nordeste 0 -- -- 52
2020-03-13 16:00:00 12.2 37 Nordeste 48 Nordeste 0 -- -- 51
2020-03-13 15:00:00 12.5 39 Nordeste 52 Nordeste 0.1 -- -- 51
2020-03-13 14:00:00 12.4 42 Nordeste 50 Nordeste 0 -- -- 52
2020-03-13 13:00:00 12.2 41 Nordeste 52 Nordeste 0 -- -- 54
2020-03-13 12:00:00 12.2 42 Nordeste 55 Nordeste 0 -- -- 55
2020-03-13 11:00:00 11.2 44 Nordeste 53 Nordeste 0 -- -- 54
2020-03-13 10:00:00 11.2 42 Nordeste 55 Nordeste 0 -- -- 54
2020-03-13 09:00:00 10.8 45 Nordeste 58 Nordeste 0 -- -- 54
2020-03-13 08:00:00 10.7 45 Nordeste 59 Nordeste 0 -- -- 53
2020-03-13 07:00:00 10.6 45 Nordeste 61 Nordeste 0 -- -- 53
2020-03-13 06:00:00 10.6 49 Nordeste 63 Nordeste 0 -- -- 54
2020-03-13 05:00:00 10.5 50 Nordeste 66 Nordeste 0 -- -- 53
2020-03-13 04:00:00 10.5 51 Nordeste 67 Nordeste 0 -- -- 52
2020-03-13 03:00:00 10.6 53 Nordeste 66 Norte 0 -- -- 52
2020-03-13 02:00:00 10.9 51 Nordeste 67 Nordeste 0 -- -- 54
2020-03-13 01:00:00 10.7 52 Nordeste 68 Nordeste 0 -- -- 53
2020-03-13 00:00:00 11 50 Nordeste 63 Nordeste 0 -- -- 55
2020-03-12 23:00:00 10.8 50 Nordeste 62 Nordeste 0 -- -- 54
2020-03-12 22:00:00 10.9 50 Nordeste 61 Nordeste 0 -- -- 55
2020-03-12 21:00:00 10.9 49 Nordeste 57 Nordeste 0 -- -- 57
2020-03-12 20:00:00 10.8 46 Nordeste 56 Nordeste 0 -- -- 57
2020-03-12 19:00:00 11.3 45 Nordeste 55 Nordeste 0 -- -- 59
2020-03-12 18:00:00 11.3 47 Nordeste 56 Nordeste 0 -- -- 59
2020-03-12 17:00:00 11.9 43 Nordeste 53 Nordeste 0 -- -- 59
2020-03-12 16:00:00 12.3 37 Nordeste 47 Norte 0 -- -- 59
2020-03-12 15:00:00 12.9 38 Nordeste 47 Nordeste 0 -- -- 62
2020-03-12 14:00:00 13.1 36 Nordeste 45 Norte 0 -- -- 62
2020-03-12 13:00:00 12.9 37 Norte 45 Norte 0 -- -- 65
2020-03-12 12:00:00 12.6 32 Nordeste 40 Nordeste 0 -- -- 68
2020-03-12 11:00:00 12.9 31 Norte 36 Norte 0 -- -- 66
2020-03-12 10:00:00 13 17 Nordeste 27 Norte 0 -- -- 66
2020-03-12 09:00:00 12.6 23 Norte 32 Norte 0 -- -- 73
2020-03-12 08:00:00 12.6 24 Norte 28 Norte 0 -- -- 74
2020-03-12 07:00:00 12.6 19 Norte 23 Norte 0 -- -- 77
2020-03-12 06:00:00 12.8 13 Nordeste 20 Nordeste 0 -- -- 79
2020-03-12 05:00:00 12.6 14 Nordeste 19 Norte 0 -- -- 80
2020-03-12 04:00:00 12.5 10 Nordeste 15 Nordeste 0 -- -- 81
2020-03-12 03:00:00 12.7 0 Calma 9 Norte 0 -- -- 80
2020-03-12 02:00:00 12.9 0 Calma -- -- 0.1 -- -- 80
2020-03-12 01:00:00 12.8 0 Calma 9 Sudoeste 0 -- -- 80
2020-03-12 00:00:00 12.6 5 Sur 11 Sur 0 -- -- 80
2020-03-11 23:00:00 12.7 9 Sur 12 Sur 0 -- -- 79
2020-03-11 22:00:00 12.4 10 Sur 13 Sudoeste 0 -- -- 78
2020-03-11 21:00:00 12.5 10 Sudoeste 14 Sudoeste 0 -- -- 76
2020-03-11 20:00:00 13.1 12 Sudoeste 15 Sudoeste 0 -- -- 71
2020-03-11 19:00:00 14.9 13 Sudoeste 19 Sudoeste 0.1 -- -- 66
2020-03-11 18:00:00 15.9 14 Sudoeste 17 Sur 0 -- -- 68
2020-03-11 17:00:00 15.4 12 Sur 19 Sudoeste 0 -- -- 70
2020-03-11 16:00:00 15.2 13 Sudoeste 21 Sudoeste 0 -- -- 69
2020-03-11 15:00:00 15.4 19 Sudoeste 25 Sudoeste 0 -- -- 68
2020-03-11 14:00:00 16.4 19 Sudoeste 25 Sudoeste 0 -- -- 68
2020-03-11 13:00:00 15.7 19 Sudoeste 24 Sudoeste 0 -- -- 74
2020-03-11 12:00:00 15.6 17 Sudoeste 22 Sudoeste 0 -- -- 79
2020-03-11 11:00:00 14.4 15 Sudoeste 18 Sur 0 -- -- 83
2020-03-11 10:00:00 13.5 15 Sudoeste 25 Sudoeste 0 -- -- 84
2020-03-11 09:00:00 13.1 14 Sudoeste 18 Sur 0 -- -- 83
2020-03-11 08:00:00 12.8 10 Sur 16 Sur 0.1 -- -- 83
2020-03-11 07:00:00 12.8 12 Sur 18 Sur 0 -- -- 83
2020-03-11 06:00:00 12.9 10 Sur 16 Sur 0 -- -- 83
2020-03-11 05:00:00 12.9 10 Sur 16 Sur 0 -- -- 83
2020-03-11 04:00:00 12.9 13 Sur 17 Sur 0 -- -- 84
2020-03-11 03:00:00 12.9 12 Sur 16 Sur 0 -- -- 84
2020-03-11 02:00:00 13 13 Sur 18 Sur 0 -- -- 84
2020-03-11 01:00:00 13.1 10 Sur 18 Sur 0 -- -- 84
2020-03-11 00:00:00 13.1 13 Sur 26 Sudoeste 0 -- -- 83
2020-03-10 23:00:00 13.2 18 Sudoeste 27 Sudoeste 0 -- -- 83
2020-03-10 22:00:00 13.2 14 Sur 19 Sur 0 -- -- 82
2020-03-10 21:00:00 13.2 14 Sur 23 Sur 0 -- -- 81
2020-03-10 20:00:00 13.2 18 Sur 28 Sur 0 -- -- 80
2020-03-10 19:00:00 13.5 20 Sur 30 Sur 0 -- -- 78
2020-03-10 18:00:00 14.2 23 Sur 30 Sur 0 -- -- 74
2020-03-10 17:00:00 14.9 21 Sur 32 Sudoeste 0 -- -- 72
2020-03-10 16:00:00 15.6 24 Sur 39 Sudoeste 0 -- -- 71
2020-03-10 15:00:00 15.5 28 Sur 39 Sudoeste 0 -- -- 70
2020-03-10 14:00:00 15.2 26 Sudoeste 37 Sudoeste 0 -- -- 74
2020-03-10 13:00:00 14.3 28 Sudoeste 37 Sur 0 -- -- 76
2020-03-10 12:00:00 14 25 Sudoeste 41 Sudoeste 0 -- -- 79
2020-03-10 11:00:00 13.1 26 Sur 37 Sudoeste 0 -- -- 80
2020-03-10 10:00:00 12.5 27 Sudoeste 36 Sur 0 -- -- 77
2020-03-10 09:00:00 12.5 28 Sur 39 Sudoeste 0 -- -- 74
2020-03-10 08:00:00 12 28 Sur 39 Sur 0 -- -- 75
2020-03-10 07:00:00 11.9 23 Sur 32 Sur 0 -- -- 74
2020-03-10 06:00:00 12.1 26 Sudoeste 37 Sudoeste 0 -- -- 73
2020-03-10 05:00:00 12 25 Sudoeste 35 Sudoeste 0 -- -- 71
2020-03-10 04:00:00 12.1 26 Sudoeste 36 Sudoeste 0 -- -- 70
2020-03-10 03:00:00 12.1 26 Sudoeste 38 Sudoeste 0 -- -- 68
2020-03-10 02:00:00 12.1 30 Sudoeste 39 Sudoeste 0 -- -- 68
2020-03-10 01:00:00 12.1 27 Sudoeste 36 Sudoeste 0 -- -- 69
2020-03-10 00:00:00 12.3 26 Sudoeste 36 Sudoeste 0 -- -- 70
2020-03-09 23:00:00 11.8 25 Sudoeste 32 Sudoeste 0 -- -- 70
2020-03-09 22:00:00 11.9 23 Sudoeste 31 Sudoeste 0 -- -- 69
2020-03-09 21:00:00 11.9 22 Sudoeste 29 Sudoeste 0 -- -- 66
2020-03-09 20:00:00 11.9 21 Sudoeste 27 Sudoeste 0 -- -- 65
2020-03-09 19:00:00 12.4 18 Sudoeste 25 Sudoeste 0 -- -- 61
2020-03-09 18:00:00 13.9 20 Sudoeste 26 Sudoeste 0 -- -- 58
2020-03-09 17:00:00 14.3 22 Sudoeste 27 Sudoeste 0 -- -- 57
2020-03-09 16:00:00 14.8 21 Sudoeste 26 Sudoeste 0 -- -- 58
2020-03-09 15:00:00 15.1 19 Sudoeste 25 Sudoeste 0 -- -- 58
2020-03-09 14:00:00 14.4 19 Sudoeste 25 Sudoeste 0 -- -- 58
2020-03-09 13:00:00 14.6 18 Sudoeste 26 Sudoeste 0 -- -- 60
2020-03-09 12:00:00 14.1 18 Sudoeste 23 Sudoeste 0 -- -- 60
2020-03-09 11:00:00 13.4 11 Sudoeste 15 Sudoeste 0 -- -- 63
2020-03-09 10:00:00 12.1 8 Sudoeste 16 Oeste 0 -- -- 69
2020-03-09 09:00:00 10.7 4 Sudoeste 14 Sur 0 -- -- 70
2020-03-09 08:00:00 10.3 6 Sudoeste 11 Sudoeste 0 -- -- 68
2020-03-09 07:00:00 10 8 Sur 13 Sur 0 -- -- 68
2020-03-09 06:00:00 10.1 8 Sudoeste 13 Sudoeste 0 -- -- 68
2020-03-09 05:00:00 10.5 7 Sur 14 Sudoeste 0 -- -- 67
2020-03-09 04:00:00 10.1 9 Oeste 13 Oeste 0 -- -- 66
2020-03-09 03:00:00 10.3 9 Noroeste 15 Noroeste 0 -- -- 67
2020-03-09 02:00:00 10.6 12 Noroeste 22 Noroeste 0 -- -- 65
2020-03-09 01:00:00 11.2 16 Noroeste 28 Noroeste 0 -- -- 64
2020-03-09 00:00:00 11.5 13 Noroeste 26 Noroeste 0 -- -- 64
2020-03-08 23:00:00 11.6 18 Noroeste 27 Oeste 0 -- -- 65
2020-03-08 22:00:00 11.8 18 Oeste 32 Oeste 0 -- -- 68
2020-03-08 21:00:00 12.3 19 Oeste 31 Oeste 0 -- -- 64
2020-03-08 20:00:00 12.3 22 Oeste 35 Oeste 0 -- -- 62
2020-03-08 19:00:00 13 22 Oeste 32 Oeste 0 -- -- 62
2020-03-08 18:00:00 14.3 20 Oeste 30 Oeste 0 -- -- 62
2020-03-08 17:00:00 14.7 23 Oeste 32 Oeste 0 -- -- 62
2020-03-08 16:00:00 14.6 23 Sudoeste 29 Oeste 0 -- -- 66
2020-03-08 15:00:00 15.1 22 Sudoeste 34 Oeste 0 -- -- 68
2020-03-08 14:00:00 14.5 26 Sudoeste 36 Sudoeste 0 -- -- 76
2020-03-08 13:00:00 15.2 23 Sudoeste 30 Sudoeste 0 -- -- 81
2020-03-08 12:00:00 14.5 24 Sudoeste 28 Sudoeste 0 -- -- 83
2020-03-08 11:00:00 14 23 Sudoeste 39 Sudoeste 0 -- -- 84
2020-03-08 10:00:00 13.1 32 Sudoeste 47 Sudoeste 0.2 -- -- 84
2020-03-08 09:00:00 12.9 36 Sudoeste 51 Sudoeste 0.5 -- -- 84
2020-03-08 08:00:00 12.4 38 Sudoeste 52 Sudoeste 0.7 -- -- 84
2020-03-08 07:00:00 11.9 37 Sudoeste 49 Sudoeste 2.5 -- -- 83
2020-03-08 06:00:00 11.6 35 Sur 49 Sudoeste 2.3 -- -- 81
2020-03-08 05:00:00 11.4 33 Sur 45 Sur 0.8 -- -- 77
2020-03-08 04:00:00 11.6 33 Sur 51 Sur 0 -- -- 71
2020-03-08 03:00:00 12.2 36 Sudoeste 55 Sudoeste 0 -- -- 65
2020-03-08 02:00:00 12.5 41 Sudoeste 55 Sudoeste 0 -- -- 63
2020-03-08 01:00:00 12.1 39 Sudoeste 55 Sudoeste 0 -- -- 62
2020-03-08 00:00:00 12.1 37 Sudoeste 51 Sudoeste 0 -- -- 63
2020-03-07 23:00:00 12.2 36 Sudoeste 46 Sudoeste 0 -- -- 60
2020-03-07 22:00:00 12.2 35 Sudoeste 45 Sudoeste 0 -- -- 59
2020-03-07 21:00:00 12.2 31 Sudoeste 39 Sudoeste 0 -- -- 57
2020-03-07 20:00:00 11.8 26 Sudoeste 37 Sudoeste 0 -- -- 55
2020-03-07 19:00:00 12.6 29 Sudoeste 38 Sudoeste 0 -- -- 51
2020-03-07 18:00:00 13.9 26 Sudoeste 35 Sudoeste 0 -- -- 51
2020-03-07 17:00:00 14.9 24 Sudoeste 32 Sudoeste 0 -- -- 52
2020-03-07 16:00:00 13.9 25 Sudoeste 33 Sudoeste 0 -- -- 51
2020-03-07 15:00:00 15.4 23 Sudoeste 28 Sudoeste 0 -- -- 54
2020-03-07 14:00:00 15.5 22 Sudoeste 25 Sudoeste 0 -- -- 58
2020-03-07 13:00:00 13.8 14 Sudoeste 20 Sudoeste 0 -- -- 69
2020-03-07 12:00:00 12.8 2 Sudoeste 12 Sur 0 -- -- 77
2020-03-07 11:00:00 11.9 5 Sur 13 Sudeste 0 -- -- 79
2020-03-07 10:00:00 11.1 8 Sudeste 12 Sudeste 0 -- -- 79
2020-03-07 09:00:00 10.7 10 Sudeste 13 Sudeste 0 -- -- 79
2020-03-07 08:00:00 10.3 7 Sudeste 12 Sudeste 0 -- -- 79
2020-03-07 07:00:00 10.3 9 Sudeste 11 Sudeste 0 -- -- 78
2020-03-07 06:00:00 10.7 5 Sudeste 12 Sudeste 0 -- -- 78
2020-03-07 05:00:00 10.9 0 Calma 15 Noroeste 0 -- -- 77
2020-03-07 04:00:00 11.2 10 Noroeste 20 Noroeste 0 -- -- 77
2020-03-07 03:00:00 11.3 13 Noroeste 21 Oeste 0 -- -- 75
2020-03-07 02:00:00 11.7 14 Noroeste 23 Noroeste 0 -- -- 75
2020-03-07 01:00:00 11.9 17 Noroeste 28 Noroeste 0 -- -- 76
2020-03-07 00:00:00 12.2 17 Noroeste 29 Noroeste 0 -- -- 75
2020-03-06 23:00:00 12.3 18 Noroeste 30 Noroeste 0 -- -- 74
2020-03-06 22:00:00 12.3 18 Noroeste 28 Noroeste 0 -- -- 72
2020-03-06 21:00:00 12 12 Noroeste 28 Noroeste 0 -- -- 70
2020-03-06 20:00:00 11.6 17 Noroeste 33 Noroeste 0 -- -- 68
2020-03-06 19:00:00 11.3 21 Noroeste 30 Noroeste 0.1 -- -- 66
2020-03-06 18:00:00 12.5 11 Norte 24 Noroeste 0 -- -- 59
2020-03-06 17:00:00 11.9 20 Noroeste 35 Noroeste 0 -- -- 54
2020-03-06 16:00:00 12.9 27 Noroeste 37 Norte 0 -- -- 48
2020-03-06 15:00:00 13.1 23 Noroeste 35 Noroeste 0 -- -- 47
2020-03-06 14:00:00 13.1 20 Noroeste 37 Norte 0 -- -- 48
2020-03-06 13:00:00 12.4 21 Noroeste 40 Norte 0 -- -- 52
2020-03-06 12:00:00 12.1 25 Noroeste 40 Norte 0.1 -- -- 53
2020-03-06 11:00:00 11.5 26 Noroeste 47 Noroeste 0 -- -- 55
2020-03-06 10:00:00 10.6 31 Noroeste 53 Noroeste 0 -- -- 60
2020-03-06 09:00:00 9.8 25 Noroeste 51 Norte 0 -- -- 63
2020-03-06 08:00:00 9.4 27 Noroeste 57 Noroeste 0 -- -- 66
2020-03-06 07:00:00 9.2 36 Noroeste 57 Noroeste 0.2 -- -- 66
2020-03-06 06:00:00 9.6 29 Noroeste 55 Noroeste 0.1 -- -- 66
2020-03-06 05:00:00 9.8 31 Noroeste 52 Noroeste 0 -- -- 65
2020-03-06 04:00:00 9.5 30 Noroeste 60 Noroeste 0.1 -- -- 65
2020-03-06 03:00:00 10.2 39 Noroeste 54 Noroeste 0.1 -- -- 63
2020-03-06 02:00:00 10.4 35 Noroeste 51 Oeste 0 -- -- 65
2020-03-06 01:00:00 10.3 36 Noroeste 58 Noroeste 0.3 -- -- 69
2020-03-06 00:00:00 10.5 30 Noroeste 60 Noroeste 0 -- -- 71
2020-03-05 23:00:00 11.4 30 Oeste 48 Oeste 0.1 -- -- 74
2020-03-05 22:00:00 10.5 38 Oeste 60 Oeste 0.2 -- -- 74
2020-03-05 21:00:00 11.5 41 Sudoeste 54 Oeste 0.1 -- -- 71
2020-03-05 20:00:00 11.7 41 Sudoeste 52 Oeste 0 -- -- 66
2020-03-05 19:00:00 11.6 30 Sudoeste 40 Oeste 0 -- -- 63
2020-03-05 18:00:00 12 26 Oeste 37 Sudoeste 0 -- -- 63
2020-03-05 17:00:00 12.4 24 Oeste 32 Oeste 0 -- -- 59
2020-03-05 16:00:00 14.1 20 Oeste 33 Oeste 0 -- -- 58
2020-03-05 15:00:00 12 24 Noroeste 37 Oeste 0 -- -- 63
2020-03-05 14:00:00 12.9 27 Noroeste 48 Noroeste 0.1 -- -- 66
2020-03-05 13:00:00 13.1 25 Noroeste 40 Noroeste 0 -- -- 67
2020-03-05 12:00:00 11.9 29 Noroeste 51 Noroeste 0 -- -- 69
2020-03-05 11:00:00 11.8 32 Noroeste 52 Noroeste 0 -- -- 72
2020-03-05 10:00:00 11.2 34 Noroeste 50 Noroeste 0 -- -- 75
2020-03-05 09:00:00 11.5 43 Oeste 64 Oeste 0.4 -- -- 77
2020-03-05 08:00:00 11.2 53 Sudoeste 73 Sudoeste 0.4 -- -- 74
2020-03-05 07:00:00 11.7 47 Oeste 67 Sudoeste 0 -- -- 73
2020-03-05 06:00:00 11.5 50 Oeste 75 Oeste 0 -- -- 75
2020-03-05 05:00:00 11.8 51 Sudoeste 64 Sudoeste 0 -- -- 84
2020-03-05 04:00:00 12.6 45 Sudoeste 59 Sudoeste 0.5 -- -- 84
2020-03-05 03:00:00 12.5 44 Sudoeste 56 Sudoeste 1 -- -- 84
2020-03-05 02:00:00 12.1 42 Sudoeste 91 Sudoeste 3.8 -- -- 84
2020-03-05 01:00:00 14 57 Sudoeste 85 Sudoeste 5.2 -- -- 84
2020-03-05 00:00:00 14.2 54 Sudoeste 79 Sur 5.5 -- -- 84
2020-03-04 23:00:00 14.4 58 Sudoeste 83 Sur 0.9 -- -- 84
2020-03-04 22:00:00 14.4 54 Sudoeste 77 Sudoeste 0.8 -- -- 84
2020-03-04 21:00:00 14.4 52 Sudoeste 68 Sudoeste 0.2 -- -- 84
2020-03-04 20:00:00 14.5 51 Sudoeste 70 Sudoeste 0.2 -- -- 84
2020-03-04 19:00:00 14.5 50 Sudoeste 68 Sudoeste 0 -- -- 84
2020-03-04 18:00:00 14.5 53 Sudoeste 70 Sudoeste 0 -- -- 84
2020-03-04 17:00:00 14.5 49 Sudoeste 66 Sudoeste 1 -- -- 84
2020-03-04 16:00:00 14.4 46 Sudoeste 64 Sudoeste 0 -- -- 84
2020-03-04 15:00:00 14.2 41 Sudoeste 56 Sudoeste 0 -- -- 84
2020-03-04 14:00:00 14.3 40 Sudoeste 57 Sudoeste 0 -- -- 84
2020-03-04 13:00:00 14.6 44 Sudoeste 56 Sudoeste 0 -- -- 84
2020-03-04 12:00:00 14.4 40 Sudoeste 50 Sudoeste 0 -- -- 84
2020-03-04 11:00:00 14.2 38 Sudoeste 50 Sudoeste 0 -- -- 84
2020-03-04 10:00:00 13.9 32 Sudoeste 45 Sudoeste 0.1 -- -- 84
2020-03-04 09:00:00 13.7 31 Sudoeste 43 Sudoeste 0 -- -- 85
2020-03-04 08:00:00 13.6 30 Sudoeste 46 Sudoeste 0.1 -- -- 84
2020-03-04 07:00:00 13.5 35 Sudoeste 48 Sudoeste 0 -- -- 84
2020-03-04 06:00:00 13.5 37 Sudoeste 51 Sudoeste 0 -- -- 84
2020-03-04 05:00:00 13.6 31 Sudoeste 43 Sudoeste 0 -- -- 84
2020-03-04 04:00:00 13.6 31 Sudoeste 47 Sudoeste 0 -- -- 84
2020-03-04 03:00:00 13.7 33 Sudoeste 46 Sudoeste 0.1 -- -- 84
2020-03-04 02:00:00 13.8 37 Sudoeste 46 Sudoeste 0 -- -- 85
2020-03-04 01:00:00 13.8 36 Sudoeste 47 Sudoeste 0 -- -- 85
2020-03-04 00:00:00 13.6 33 Sudoeste 44 Sudoeste 0.1 -- -- 84
2020-03-03 23:00:00 13.8 36 Sudoeste 45 Sudoeste 0.4 -- -- 84
2020-03-03 22:00:00 13.7 31 Sudoeste 44 Sudoeste 0.5 -- -- 84
2020-03-03 21:00:00 13.7 33 Sudoeste 41 Sudoeste 0.2 -- -- 85
2020-03-03 20:00:00 13.8 31 Sudoeste 77 Sudoeste 0.4 -- -- 84
2020-03-03 19:00:00 13.8 28 Sudoeste 41 Sur 0.2 -- -- 84
2020-03-03 18:00:00 13.6 23 Sudoeste 32 Sur 0 -- -- 84
2020-03-03 17:00:00 14 24 Sudoeste 31 Sudoeste 0 -- -- 84
2020-03-03 16:00:00 14 19 Sudoeste 27 Sudoeste 0 -- -- 84
2020-03-03 15:00:00 14.3 21 Sudoeste 30 Sudoeste 0 -- -- 84
2020-03-03 14:00:00 14.4 21 Sudoeste 33 Sudoeste 0 -- -- 84
2020-03-03 13:00:00 14.5 24 Sudoeste 33 Sudoeste 0 -- -- 84
2020-03-03 12:00:00 14.2 27 Sudoeste 39 Sudoeste 0 -- -- 84
2020-03-03 11:00:00 14.1 30 Sudoeste 46 Sudoeste 0 -- -- 85
2020-03-03 10:00:00 13.9 36 Sudoeste 53 Sudoeste 0.1 -- -- 85
2020-03-03 09:00:00 13.7 45 Sudoeste 62 Sudoeste 0 -- -- 85
2020-03-03 08:00:00 13.7 49 Sudoeste 69 Sudoeste 0.2 -- -- 85
2020-03-03 07:00:00 13.7 55 Sudoeste 72 Sudoeste 0.4 -- -- 85
2020-03-03 06:00:00 13.4 53 Sudoeste 77 Sudoeste 0.2 -- -- 85
2020-03-03 05:00:00 12.9 53 Sudoeste 83 Sudoeste 1 -- -- 83
2020-03-03 04:00:00 12.6 57 Sudoeste 74 Sur 0 -- -- 81
2020-03-03 03:00:00 12.1 50 Sudoeste 76 Sudoeste 0.1 -- -- 81
2020-03-03 02:00:00 11.2 47 Sudoeste 66 Sudoeste 0.7 -- -- 79
2020-03-03 01:00:00 11.3 45 Sudoeste 61 Sudoeste 1.1 -- -- 77
2020-03-03 00:00:00 11.2 41 Sudoeste 54 Sudoeste 0.6 -- -- 71
2020-03-02 23:00:00 11.8 31 Sudoeste 44 Sudoeste 0 -- -- 62
2020-03-02 22:00:00 11.6 36 Sudoeste 49 Sudoeste 0 -- -- 61
2020-03-02 21:00:00 11.6 37 Sudoeste 47 Sudoeste 0 -- -- 63
2020-03-02 20:00:00 11.3 31 Sudoeste 45 Sudoeste 0 -- -- 62
2020-03-02 19:00:00 11 32 Sudoeste 43 Sudoeste 0 -- -- 60
2020-03-02 18:00:00 11.3 29 Sudoeste 39 Sudoeste 0 -- -- 56
2020-03-02 17:00:00 11.2 24 Sudoeste 39 Oeste 0 -- -- 54
2020-03-02 16:00:00 12.8 21 Oeste 37 Oeste 0 -- -- 58
2020-03-02 15:00:00 10.1 32 Oeste 50 Sudoeste 0 -- -- 59
2020-03-02 14:00:00 12.6 16 Oeste 33 Oeste 0 -- -- 57
2020-03-02 13:00:00 11.3 20 Oeste 57 Oeste 0.1 -- -- 59
2020-03-02 12:00:00 10.7 25 Noroeste 62 Noroeste 0.1 -- -- 59
2020-03-02 11:00:00 11.1 35 Noroeste 55 Noroeste 0 -- -- 59
2020-03-02 10:00:00 10.2 40 Noroeste 58 Noroeste 0 -- -- 63
2020-03-02 09:00:00 8.8 32 Noroeste 80 Noroeste 0.1 -- -- 67
2020-03-02 08:00:00 9.4 39 Oeste 58 Oeste 0.2 -- -- 70
2020-03-02 07:00:00 8.6 31 Noroeste 72 Noroeste 0.5 -- -- 73
2020-03-02 06:00:00 9.6 35 Noroeste 53 Noroeste 0.1 -- -- 73
2020-03-02 05:00:00 9.2 35 Noroeste 78 Noroeste 0.1 -- -- 79
2020-03-02 04:00:00 10.1 40 Oeste 67 Oeste 1.8 -- -- 79
2020-03-02 03:00:00 10.4 32 Oeste 59 Noroeste 0 -- -- 82
2020-03-02 02:00:00 10.3 44 Oeste 60 Noroeste 0 -- -- 85
2020-03-02 01:00:00 10.7 40 Noroeste 66 Sudoeste 1 -- -- 86
2020-03-02 00:00:00 13.2 50 Sudoeste 95 Sudoeste 8.8 -- -- 85